sensor_id;sensor_type;location;lat;lon;timestamp;P1;durP1;ratioP1;P2;durP2;ratioP2
9042;SDS011;4556;49.150;8.808;2022-07-01T00:00:31;1.00;;;0.50;;
9042;SDS011;4556;49.150;8.808;2022-07-01T00:02:58;0.87;;;0.50;;
9042;SDS011;4556;49.150;8.808;2022-07-01T00:05:25;1.90;;;0.50;;
9042;SDS011;4556;49.150;8.808;2022-07-01T00:07:52;1.17;;;0.70;;
9042;SDS011;4556;49.150;8.808;2022-07-01T00:10:20;1.43;;;0.70;;
9042;SDS011;4556;49.150;8.808;2022-07-01T00:12:48;1.03;;;0.70;;
9042;SDS011;4556;49.150;8.808;2022-07-01T00:15:14;1.30;;;0.60;;
9042;SDS011;4556;49.150;8.808;2022-07-01T00:17:42;1.13;;;0.80;;
9042;SDS011;4556;49.150;8.808;2022-07-01T00:20:10;3.80;;;0.73;;
9042;SDS011;4556;49.150;8.808;2022-07-01T00:22:39;1.63;;;0.70;;
9042;SDS011;4556;49.150;8.808;2022-07-01T00:25:06;1.43;;;0.70;;
9042;SDS011;4556;49.150;8.808;2022-07-01T00:27:55;0.90;;;0.90;;
9042;SDS011;4556;49.150;8.808;2022-07-01T00:30:24;1.37;;;0.70;;
9042;SDS011;4556;49.150;8.808;2022-07-01T00:32:51;3.40;;;0.90;;
9042;SDS011;4556;49.150;8.808;2022-07-01T00:35:19;0.83;;;0.60;;
9042;SDS011;4556;49.150;8.808;2022-07-01T00:37:46;1.23;;;0.60;;
9042;SDS011;4556;49.150;8.808;2022-07-01T00:40:13;1.63;;;0.60;;
9042;SDS011;4556;49.150;8.808;2022-07-01T00:42:41;0.60;;;0.60;;
9042;SDS011;4556;49.150;8.808;2022-07-01T00:45:11;1.33;;;0.70;;
9042;SDS011;4556;49.150;8.808;2022-07-01T00:47:38;1.00;;;0.60;;
9042;SDS011;4556;49.150;8.808;2022-07-01T00:50:07;1.17;;;0.63;;
9042;SDS011;4556;49.150;8.808;2022-07-01T00:52:36;1.20;;;0.80;;
9042;SDS011;4556;49.150;8.808;2022-07-01T00:55:05;2.67;;;0.80;;
9042;SDS011;4556;49.150;8.808;2022-07-01T00:57:35;1.80;;;0.63;;
9042;SDS011;4556;49.150;8.808;2022-07-01T01:00:03;4.23;;;0.83;;
9042;SDS011;4556;49.150;8.808;2022-07-01T01:02:34;1.50;;;0.77;;
9042;SDS011;4556;49.150;8.808;2022-07-01T01:05:02;0.80;;;0.67;;
9042;SDS011;4556;49.150;8.808;2022-07-01T01:07:29;0.93;;;0.50;;
9042;SDS011;4556;49.150;8.808;2022-07-01T01:09:58;3.23;;;0.50;;
9042;SDS011;4556;49.150;8.808;2022-07-01T01:12:26;1.67;;;0.60;;
9042;SDS011;4556;49.150;8.808;2022-07-01T01:15:04;1.93;;;0.70;;
9042;SDS011;4556;49.150;8.808;2022-07-01T01:17:33;0.70;;;0.70;;
9042;SDS011;4556;49.150;8.808;2022-07-01T01:20:00;0.60;;;0.50;;
9042;SDS011;4556;49.150;8.808;2022-07-01T01:22:29;2.40;;;0.60;;
9042;SDS011;4556;49.150;8.808;2022-07-01T01:24:56;2.17;;;0.70;;
9042;SDS011;4556;49.150;8.808;2022-07-01T01:27:24;2.43;;;0.97;;
9042;SDS011;4556;49.150;8.808;2022-07-01T01:29:51;1.70;;;0.80;;
9042;SDS011;4556;49.150;8.808;2022-07-01T01:32:19;0.80;;;0.60;;
9042;SDS011;4556;49.150;8.808;2022-07-01T01:34:46;0.73;;;0.53;;
9042;SDS011;4556;49.150;8.808;2022-07-01T01:37:14;1.63;;;0.50;;
9042;SDS011;4556;49.150;8.808;2022-07-01T01:39:44;2.67;;;0.70;;
9042;SDS011;4556;49.150;8.808;2022-07-01T01:42:11;1.90;;;0.80;;
9042;SDS011;4556;49.150;8.808;2022-07-01T01:44:37;3.57;;;0.70;;
9042;SDS011;4556;49.150;8.808;2022-07-01T01:47:04;2.30;;;0.60;;
9042;SDS011;4556;49.150;8.808;2022-07-01T01:49:31;2.47;;;0.63;;
9042;SDS011;4556;49.150;8.808;2022-07-01T01:51:59;1.60;;;0.70;;
9042;SDS011;4556;49.150;8.808;2022-07-01T01:54:26;0.50;;;0.50;;
9042;SDS011;4556;49.150;8.808;2022-07-01T01:56:55;6.03;;;0.73;;
9042;SDS011;4556;49.150;8.808;2022-07-01T01:59:22;1.20;;;0.57;;
9042;SDS011;4556;49.150;8.808;2022-07-01T02:01:49;3.27;;;0.60;;
9042;SDS011;4556;49.150;8.808;2022-07-01T02:04:16;2.03;;;0.60;;
9042;SDS011;4556;49.150;8.808;2022-07-01T02:06:43;1.80;;;0.60;;
9042;SDS011;4556;49.150;8.808;2022-07-01T02:09:10;1.50;;;0.77;;
9042;SDS011;4556;49.150;8.808;2022-07-01T02:11:38;2.83;;;0.70;;
9042;SDS011;4556;49.150;8.808;2022-07-01T02:14:07;2.30;;;0.63;;
9042;SDS011;4556;49.150;8.808;2022-07-01T02:16:34;0.87;;;0.60;;
9042;SDS011;4556;49.150;8.808;2022-07-01T02:19:01;2.53;;;0.60;;
9042;SDS011;4556;49.150;8.808;2022-07-01T02:21:28;1.97;;;0.70;;
9042;SDS011;4556;49.150;8.808;2022-07-01T02:23:55;2.40;;;0.60;;
9042;SDS011;4556;49.150;8.808;2022-07-01T02:26:22;1.43;;;0.70;;
9042;SDS011;4556;49.150;8.808;2022-07-01T02:28:49;1.37;;;0.63;;
9042;SDS011;4556;49.150;8.808;2022-07-01T02:31:18;1.43;;;0.80;;
9042;SDS011;4556;49.150;8.808;2022-07-01T02:33:45;0.40;;;0.40;;
9042;SDS011;4556;49.150;8.808;2022-07-01T02:36:12;1.50;;;0.67;;
9042;SDS011;4556;49.150;8.808;2022-07-01T02:38:40;1.07;;;0.63;;
9042;SDS011;4556;49.150;8.808;2022-07-01T02:41:07;1.37;;;0.83;;
9042;SDS011;4556;49.150;8.808;2022-07-01T02:43:35;4.10;;;0.77;;
9042;SDS011;4556;49.150;8.808;2022-07-01T02:46:02;1.00;;;0.73;;
9042;SDS011;4556;49.150;8.808;2022-07-01T02:51:01;1.33;;;0.60;;
9042;SDS011;4556;49.150;8.808;2022-07-01T02:53:27;2.30;;;0.90;;
9042;SDS011;4556;49.150;8.808;2022-07-01T02:55:54;1.27;;;0.73;;
9042;SDS011;4556;49.150;8.808;2022-07-01T02:58:22;1.43;;;0.80;;
9042;SDS011;4556;49.150;8.808;2022-07-01T03:00:50;1.80;;;0.80;;
9042;SDS011;4556;49.150;8.808;2022-07-01T03:03:18;0.70;;;0.70;;
9042;SDS011;4556;49.150;8.808;2022-07-01T03:05:47;1.10;;;0.70;;
9042;SDS011;4556;49.150;8.808;2022-07-01T03:08:14;2.23;;;0.90;;
9042;SDS011;4556;49.150;8.808;2022-07-01T03:10:41;2.20;;;0.80;;
9042;SDS011;4556;49.150;8.808;2022-07-01T03:13:08;2.10;;;1.00;;
9042;SDS011;4556;49.150;8.808;2022-07-01T03:15:35;4.53;;;0.90;;
9042;SDS011;4556;49.150;8.808;2022-07-01T03:18:03;1.07;;;0.87;;
9042;SDS011;4556;49.150;8.808;2022-07-01T03:20:30;2.67;;;0.70;;
9042;SDS011;4556;49.150;8.808;2022-07-01T03:22:58;3.10;;;0.77;;
9042;SDS011;4556;49.150;8.808;2022-07-01T03:25:26;2.13;;;0.80;;
9042;SDS011;4556;49.150;8.808;2022-07-01T03:27:53;2.13;;;0.80;;
9042;SDS011;4556;49.150;8.808;2022-07-01T03:30:20;0.97;;;0.90;;
9042;SDS011;4556;49.150;8.808;2022-07-01T03:32:47;1.50;;;0.90;;
9042;SDS011;4556;49.150;8.808;2022-07-01T03:35:14;2.43;;;1.10;;
9042;SDS011;4556;49.150;8.808;2022-07-01T03:37:59;3.93;;;1.00;;
9042;SDS011;4556;49.150;8.808;2022-07-01T03:40:27;3.40;;;1.10;;
9042;SDS011;4556;49.150;8.808;2022-07-01T03:42:54;4.27;;;1.17;;
9042;SDS011;4556;49.150;8.808;2022-07-01T03:45:21;2.10;;;1.30;;
9042;SDS011;4556;49.150;8.808;2022-07-01T03:47:49;2.50;;;1.20;;
9042;SDS011;4556;49.150;8.808;2022-07-01T03:50:16;2.87;;;1.17;;
9042;SDS011;4556;49.150;8.808;2022-07-01T03:52:44;1.40;;;1.23;;
9042;SDS011;4556;49.150;8.808;2022-07-01T03:55:14;1.53;;;1.20;;
9042;SDS011;4556;49.150;8.808;2022-07-01T03:57:41;2.53;;;1.50;;
9042;SDS011;4556;49.150;8.808;2022-07-01T04:00:09;2.83;;;1.60;;
9042;SDS011;4556;49.150;8.808;2022-07-01T04:02:36;3.07;;;1.43;;
9042;SDS011;4556;49.150;8.808;2022-07-01T04:05:04;2.37;;;1.30;;
9042;SDS011;4556;49.150;8.808;2022-07-01T04:07:31;4.43;;;1.80;;
9042;SDS011;4556;49.150;8.808;2022-07-01T04:09:58;3.10;;;1.47;;
9042;SDS011;4556;49.150;8.808;2022-07-01T04:12:26;2.27;;;1.60;;
9042;SDS011;4556;49.150;8.808;2022-07-01T04:14:53;3.90;;;1.47;;
9042;SDS011;4556;49.150;8.808;2022-07-01T04:17:20;2.60;;;1.60;;
9042;SDS011;4556;49.150;8.808;2022-07-01T04:19:47;3.27;;;2.00;;
9042;SDS011;4556;49.150;8.808;2022-07-01T04:22:14;3.80;;;1.87;;
9042;SDS011;4556;49.150;8.808;2022-07-01T04:24:58;1.90;;;1.30;;
9042;SDS011;4556;49.150;8.808;2022-07-01T04:27:27;6.30;;;1.70;;
9042;SDS011;4556;49.150;8.808;2022-07-01T04:29:54;2.47;;;1.27;;
9042;SDS011;4556;49.150;8.808;2022-07-01T04:32:28;5.63;;;1.60;;
9042;SDS011;4556;49.150;8.808;2022-07-01T04:34:56;2.17;;;1.60;;
9042;SDS011;4556;49.150;8.808;2022-07-01T04:37:24;4.70;;;1.53;;
9042;SDS011;4556;49.150;8.808;2022-07-01T04:39:51;2.00;;;1.33;;
9042;SDS011;4556;49.150;8.808;2022-07-01T04:42:17;4.77;;;1.67;;
9042;SDS011;4556;49.150;8.808;2022-07-01T04:44:47;2.27;;;1.60;;
9042;SDS011;4556;49.150;8.808;2022-07-01T04:47:14;3.10;;;1.63;;
9042;SDS011;4556;49.150;8.808;2022-07-01T04:49:41;2.93;;;1.47;;
9042;SDS011;4556;49.150;8.808;2022-07-01T04:52:08;1.83;;;1.30;;
9042;SDS011;4556;49.150;8.808;2022-07-01T04:54:36;3.50;;;1.33;;
9042;SDS011;4556;49.150;8.808;2022-07-01T04:57:03;2.43;;;1.67;;
9042;SDS011;4556;49.150;8.808;2022-07-01T04:59:30;2.67;;;1.57;;
9042;SDS011;4556;49.150;8.808;2022-07-01T05:01:58;3.13;;;1.60;;
9042;SDS011;4556;49.150;8.808;2022-07-01T05:04:26;1.67;;;1.53;;
9042;SDS011;4556;49.150;8.808;2022-07-01T05:06:53;5.20;;;1.77;;
9042;SDS011;4556;49.150;8.808;2022-07-01T05:09:20;1.77;;;1.43;;
9042;SDS011;4556;49.150;8.808;2022-07-01T05:11:47;4.83;;;1.50;;
9042;SDS011;4556;49.150;8.808;2022-07-01T05:14:14;5.27;;;2.00;;
9042;SDS011;4556;49.150;8.808;2022-07-01T05:16:41;2.53;;;1.40;;
9042;SDS011;4556;49.150;8.808;2022-07-01T05:19:10;3.97;;;2.00;;
9042;SDS011;4556;49.150;8.808;2022-07-01T05:21:55;4.70;;;1.80;;
9042;SDS011;4556;49.150;8.808;2022-07-01T05:24:28;2.23;;;1.73;;
9042;SDS011;4556;49.150;8.808;2022-07-01T05:27:55;3.70;;;1.90;;
9042;SDS011;4556;49.150;8.808;2022-07-01T05:33:38;2.07;;;1.87;;
9042;SDS011;4556;49.150;8.808;2022-07-01T05:36:07;2.57;;;1.90;;
9042;SDS011;4556;49.150;8.808;2022-07-01T05:46:24;4.23;;;1.93;;
9042;SDS011;4556;49.150;8.808;2022-07-01T05:48:55;3.13;;;2.20;;
9042;SDS011;4556;49.150;8.808;2022-07-01T05:51:24;4.50;;;2.37;;
9042;SDS011;4556;49.150;8.808;2022-07-01T05:53:51;3.00;;;2.10;;
9042;SDS011;4556;49.150;8.808;2022-07-01T05:56:18;4.67;;;2.10;;
9042;SDS011;4556;49.150;8.808;2022-07-01T05:58:45;4.70;;;2.23;;
9042;SDS011;4556;49.150;8.808;2022-07-01T06:01:12;3.00;;;1.70;;
9042;SDS011;4556;49.150;8.808;2022-07-01T06:03:39;3.13;;;2.03;;
9042;SDS011;4556;49.150;8.808;2022-07-01T06:06:06;8.87;;;2.07;;
9042;SDS011;4556;49.150;8.808;2022-07-01T06:08:34;3.10;;;1.97;;
9042;SDS011;4556;49.150;8.808;2022-07-01T06:11:01;4.67;;;2.00;;
9042;SDS011;4556;49.150;8.808;2022-07-01T06:13:29;4.00;;;2.20;;
9042;SDS011;4556;49.150;8.808;2022-07-01T06:15:56;3.43;;;1.93;;
9042;SDS011;4556;49.150;8.808;2022-07-01T06:18:23;1.70;;;1.60;;
9042;SDS011;4556;49.150;8.808;2022-07-01T06:20:51;2.30;;;1.80;;
9042;SDS011;4556;49.150;8.808;2022-07-01T06:23:18;2.10;;;1.90;;
9042;SDS011;4556;49.150;8.808;2022-07-01T06:25:47;2.20;;;1.87;;
9042;SDS011;4556;49.150;8.808;2022-07-01T06:28:14;4.30;;;2.40;;
9042;SDS011;4556;49.150;8.808;2022-07-01T06:30:41;2.43;;;2.23;;
9042;SDS011;4556;49.150;8.808;2022-07-01T06:33:12;3.63;;;2.30;;
9042;SDS011;4556;49.150;8.808;2022-07-01T06:35:39;4.57;;;2.10;;
9042;SDS011;4556;49.150;8.808;2022-07-01T06:38:07;2.73;;;2.27;;
9042;SDS011;4556;49.150;8.808;2022-07-01T06:40:34;9.47;;;2.47;;
9042;SDS011;4556;49.150;8.808;2022-07-01T06:43:02;3.63;;;2.10;;
9042;SDS011;4556;49.150;8.808;2022-07-01T06:45:29;3.30;;;2.03;;
9042;SDS011;4556;49.150;8.808;2022-07-01T06:47:58;5.60;;;2.17;;
9042;SDS011;4556;49.150;8.808;2022-07-01T06:50:25;5.40;;;1.93;;
9042;SDS011;4556;49.150;8.808;2022-07-01T06:52:53;5.23;;;1.70;;
9042;SDS011;4556;49.150;8.808;2022-07-01T06:55:20;2.20;;;1.43;;
9042;SDS011;4556;49.150;8.808;2022-07-01T06:57:46;2.33;;;1.80;;
9042;SDS011;4556;49.150;8.808;2022-07-01T07:00:15;4.40;;;2.03;;
9042;SDS011;4556;49.150;8.808;2022-07-01T07:02:43;3.40;;;1.90;;
9042;SDS011;4556;49.150;8.808;2022-07-01T07:05:10;1.93;;;1.83;;
9042;SDS011;4556;49.150;8.808;2022-07-01T07:07:37;2.40;;;1.70;;
9042;SDS011;4556;49.150;8.808;2022-07-01T07:10:04;2.63;;;1.70;;
9042;SDS011;4556;49.150;8.808;2022-07-01T07:12:32;4.60;;;1.50;;
9042;SDS011;4556;49.150;8.808;2022-07-01T07:15:01;4.23;;;1.80;;
9042;SDS011;4556;49.150;8.808;2022-07-01T07:17:30;2.40;;;1.80;;
9042;SDS011;4556;49.150;8.808;2022-07-01T07:19:57;2.13;;;1.60;;
9042;SDS011;4556;49.150;8.808;2022-07-01T07:22:24;2.30;;;1.60;;
9042;SDS011;4556;49.150;8.808;2022-07-01T07:24:51;2.23;;;1.43;;
9042;SDS011;4556;49.150;8.808;2022-07-01T07:27:19;3.07;;;1.63;;
9042;SDS011;4556;49.150;8.808;2022-07-01T07:29:46;2.43;;;1.80;;
9042;SDS011;4556;49.150;8.808;2022-07-01T07:32:26;2.67;;;1.70;;
9042;SDS011;4556;49.150;8.808;2022-07-01T07:34:54;2.43;;;1.50;;
9042;SDS011;4556;49.150;8.808;2022-07-01T07:37:28;1.87;;;1.70;;
9042;SDS011;4556;49.150;8.808;2022-07-01T07:39:57;1.90;;;1.80;;
9042;SDS011;4556;49.150;8.808;2022-07-01T07:42:24;1.47;;;1.37;;
9042;SDS011;4556;49.150;8.808;2022-07-01T07:44:51;2.63;;;1.73;;
9042;SDS011;4556;49.150;8.808;2022-07-01T07:47:19;3.60;;;1.87;;
9042;SDS011;4556;49.150;8.808;2022-07-01T07:49:46;2.87;;;1.60;;
9042;SDS011;4556;49.150;8.808;2022-07-01T07:52:15;2.73;;;2.20;;
9042;SDS011;4556;49.150;8.808;2022-07-01T07:54:42;2.70;;;1.93;;
9042;SDS011;4556;49.150;8.808;2022-07-01T07:57:09;1.70;;;1.60;;
9042;SDS011;4556;49.150;8.808;2022-07-01T07:59:36;5.37;;;2.20;;
9042;SDS011;4556;49.150;8.808;2022-07-01T08:02:03;3.07;;;1.93;;
9042;SDS011;4556;49.150;8.808;2022-07-01T08:04:30;3.87;;;2.47;;
9042;SDS011;4556;49.150;8.808;2022-07-01T08:06:57;2.43;;;1.90;;
9042;SDS011;4556;49.150;8.808;2022-07-01T08:09:27;1.87;;;1.77;;
9042;SDS011;4556;49.150;8.808;2022-07-01T08:11:54;3.47;;;1.83;;
9042;SDS011;4556;49.150;8.808;2022-07-01T08:14:21;2.60;;;1.70;;
9042;SDS011;4556;49.150;8.808;2022-07-01T08:16:48;2.37;;;1.60;;
9042;SDS011;4556;49.150;8.808;2022-07-01T08:19:15;2.30;;;1.87;;
9042;SDS011;4556;49.150;8.808;2022-07-01T08:21:42;2.13;;;1.57;;
9042;SDS011;4556;49.150;8.808;2022-07-01T08:24:10;2.83;;;1.60;;
9042;SDS011;4556;49.150;8.808;2022-07-01T08:26:38;1.40;;;1.30;;
9042;SDS011;4556;49.150;8.808;2022-07-01T08:29:05;1.70;;;1.60;;
9042;SDS011;4556;49.150;8.808;2022-07-01T08:31:32;1.67;;;1.57;;
9042;SDS011;4556;49.150;8.808;2022-07-01T08:34:00;2.80;;;1.90;;
9042;SDS011;4556;49.150;8.808;2022-07-01T08:36:27;3.57;;;2.30;;
9042;SDS011;4556;49.150;8.808;2022-07-01T08:38:54;2.10;;;1.90;;
9042;SDS011;4556;49.150;8.808;2022-07-01T08:41:21;1.83;;;1.60;;
9042;SDS011;4556;49.150;8.808;2022-07-01T08:43:51;2.67;;;1.83;;
9042;SDS011;4556;49.150;8.808;2022-07-01T08:46:18;3.10;;;1.70;;
9042;SDS011;4556;49.150;8.808;2022-07-01T08:48:45;2.90;;;1.80;;
9042;SDS011;4556;49.150;8.808;2022-07-01T08:51:12;2.53;;;1.70;;
9042;SDS011;4556;49.150;8.808;2022-07-01T08:53:39;2.17;;;1.93;;
9042;SDS011;4556;49.150;8.808;2022-07-01T08:56:06;2.87;;;2.03;;
9042;SDS011;4556;49.150;8.808;2022-07-01T08:58:52;2.23;;;1.80;;
9042;SDS011;4556;49.150;8.808;2022-07-01T09:01:20;2.90;;;1.83;;
9042;SDS011;4556;49.150;8.808;2022-07-01T09:03:48;2.37;;;1.90;;
9042;SDS011;4556;49.150;8.808;2022-07-01T09:06:18;2.20;;;2.00;;
9042;SDS011;4556;49.150;8.808;2022-07-01T09:08:47;2.40;;;2.00;;
9042;SDS011;4556;49.150;8.808;2022-07-01T09:11:16;3.70;;;2.47;;
9042;SDS011;4556;49.150;8.808;2022-07-01T09:13:44;2.20;;;2.00;;
9042;SDS011;4556;49.150;8.808;2022-07-01T09:16:14;2.50;;;1.97;;
9042;SDS011;4556;49.150;8.808;2022-07-01T09:21:29;3.10;;;2.53;;
9042;SDS011;4556;49.150;8.808;2022-07-01T09:23:56;3.00;;;2.70;;
9042;SDS011;4556;49.150;8.808;2022-07-01T09:26:24;3.33;;;3.00;;
9042;SDS011;4556;49.150;8.808;2022-07-01T09:28:53;3.13;;;2.30;;
9042;SDS011;4556;49.150;8.808;2022-07-01T09:31:22;2.40;;;2.20;;
9042;SDS011;4556;49.150;8.808;2022-07-01T09:34:02;2.50;;;2.30;;
9042;SDS011;4556;49.150;8.808;2022-07-01T09:36:30;2.00;;;1.90;;
9042;SDS011;4556;49.150;8.808;2022-07-01T09:39:04;2.60;;;1.90;;
9042;SDS011;4556;49.150;8.808;2022-07-01T09:41:34;2.97;;;1.77;;
9042;SDS011;4556;49.150;8.808;2022-07-01T09:46:33;2.33;;;1.70;;
9042;SDS011;4556;49.150;8.808;2022-07-01T09:49:14;2.30;;;1.70;;
9042;SDS011;4556;49.150;8.808;2022-07-01T09:54:34;3.40;;;1.90;;
9042;SDS011;4556;49.150;8.808;2022-07-01T09:57:02;3.90;;;2.40;;
9042;SDS011;4556;49.150;8.808;2022-07-01T12:52:31;0.93;;;0.70;;
9042;SDS011;4556;49.150;8.808;2022-07-01T12:54:58;0.67;;;0.60;;
9042;SDS011;4556;49.150;8.808;2022-07-01T12:57:29;0.70;;;0.70;;
9042;SDS011;4556;49.150;8.808;2022-07-01T12:59:56;2.30;;;0.60;;
9042;SDS011;4556;49.150;8.808;2022-07-01T13:02:24;0.57;;;0.57;;
9042;SDS011;4556;49.150;8.808;2022-07-01T13:04:51;0.70;;;0.70;;
9042;SDS011;4556;49.150;8.808;2022-07-01T13:07:18;1.20;;;0.90;;
9042;SDS011;4556;49.150;8.808;2022-07-01T13:09:46;0.60;;;0.60;;
9042;SDS011;4556;49.150;8.808;2022-07-01T13:12:13;3.00;;;0.87;;
9042;SDS011;4556;49.150;8.808;2022-07-01T13:14:41;2.30;;;0.63;;
9042;SDS011;4556;49.150;8.808;2022-07-01T13:17:10;1.77;;;0.60;;
9042;SDS011;4556;49.150;8.808;2022-07-01T13:22:58;1.87;;;0.70;;
9042;SDS011;4556;49.150;8.808;2022-07-01T13:25:51;1.37;;;0.83;;
9042;SDS011;4556;49.150;8.808;2022-07-01T13:41:52;1.33;;;0.60;;
9042;SDS011;4556;49.150;8.808;2022-07-01T13:44:34;0.57;;;0.57;;
9042;SDS011;4556;49.150;8.808;2022-07-01T13:47:01;2.43;;;0.60;;
9042;SDS011;4556;49.150;8.808;2022-07-01T13:49:30;1.13;;;0.60;;
9042;SDS011;4556;49.150;8.808;2022-07-01T13:51:57;4.23;;;1.40;;
9042;SDS011;4556;49.150;8.808;2022-07-01T13:54:25;2.27;;;0.83;;
9042;SDS011;4556;49.150;8.808;2022-07-01T13:56:53;1.63;;;0.70;;
9042;SDS011;4556;49.150;8.808;2022-07-01T13:59:20;2.73;;;1.17;;
9042;SDS011;4556;49.150;8.808;2022-07-01T14:01:47;0.60;;;0.60;;
9042;SDS011;4556;49.150;8.808;2022-07-01T14:04:14;1.87;;;0.63;;
9042;SDS011;4556;49.150;8.808;2022-07-01T14:06:41;0.50;;;0.50;;
9042;SDS011;4556;49.150;8.808;2022-07-01T14:09:08;1.47;;;0.70;;
9042;SDS011;4556;49.150;8.808;2022-07-01T14:11:36;1.60;;;0.60;;
9042;SDS011;4556;49.150;8.808;2022-07-01T14:14:07;0.90;;;0.70;;
9042;SDS011;4556;49.150;8.808;2022-07-01T14:16:36;1.50;;;0.60;;
9042;SDS011;4556;49.150;8.808;2022-07-01T14:19:03;2.07;;;0.60;;
9042;SDS011;4556;49.150;8.808;2022-07-01T14:21:30;0.83;;;0.70;;
9042;SDS011;4556;49.150;8.808;2022-07-01T14:23:58;1.30;;;0.70;;
9042;SDS011;4556;49.150;8.808;2022-07-01T14:26:25;0.63;;;0.50;;
9042;SDS011;4556;49.150;8.808;2022-07-01T14:28:53;1.13;;;0.60;;
9042;SDS011;4556;49.150;8.808;2022-07-01T14:31:24;2.10;;;0.60;;
9042;SDS011;4556;49.150;8.808;2022-07-01T14:33:51;1.67;;;0.63;;
9042;SDS011;4556;49.150;8.808;2022-07-01T14:36:18;1.13;;;0.70;;
9042;SDS011;4556;49.150;8.808;2022-07-01T14:38:49;1.33;;;0.60;;
9042;SDS011;4556;49.150;8.808;2022-07-01T14:41:19;1.53;;;0.50;;
9042;SDS011;4556;49.150;8.808;2022-07-01T14:43:45;1.43;;;0.60;;
9042;SDS011;4556;49.150;8.808;2022-07-01T14:46:13;1.17;;;0.70;;
9042;SDS011;4556;49.150;8.808;2022-07-01T14:48:45;1.83;;;0.77;;
9042;SDS011;4556;49.150;8.808;2022-07-01T14:51:12;0.80;;;0.60;;
9042;SDS011;4556;49.150;8.808;2022-07-01T14:53:39;0.57;;;0.57;;
9042;SDS011;4556;49.150;8.808;2022-07-01T14:56:06;1.67;;;0.50;;
9042;SDS011;4556;49.150;8.808;2022-07-01T14:58:39;1.77;;;0.53;;
9042;SDS011;4556;49.150;8.808;2022-07-01T15:01:07;1.83;;;0.60;;
9042;SDS011;4556;49.150;8.808;2022-07-01T15:03:47;0.73;;;0.70;;
9042;SDS011;4556;49.150;8.808;2022-07-01T15:06:17;0.80;;;0.60;;
9042;SDS011;4556;49.150;8.808;2022-07-01T15:08:44;1.87;;;0.60;;
9042;SDS011;4556;49.150;8.808;2022-07-01T15:11:11;1.33;;;0.60;;
9042;SDS011;4556;49.150;8.808;2022-07-01T15:13:39;2.40;;;0.70;;
9042;SDS011;4556;49.150;8.808;2022-07-01T15:16:06;1.33;;;0.67;;
9042;SDS011;4556;49.150;8.808;2022-07-01T15:18:44;2.77;;;0.80;;
9042;SDS011;4556;49.150;8.808;2022-07-01T16:06:11;1.20;;;0.70;;
9042;SDS011;4556;49.150;8.808;2022-07-01T16:14:18;0.93;;;0.50;;
9042;SDS011;4556;49.150;8.808;2022-07-01T16:16:57;1.93;;;0.70;;
9042;SDS011;4556;49.150;8.808;2022-07-01T16:19:31;0.67;;;0.67;;
9042;SDS011;4556;49.150;8.808;2022-07-01T18:29:54;1.23;;;0.63;;
9042;SDS011;4556;49.150;8.808;2022-07-01T18:32:23;1.13;;;0.50;;
9042;SDS011;4556;49.150;8.808;2022-07-01T18:35:02;1.07;;;0.70;;
9042;SDS011;4556;49.150;8.808;2022-07-01T20:30:24;1.83;;;1.00;;
9042;SDS011;4556;49.150;8.808;2022-07-01T20:54:32;2.10;;;1.17;;
9042;SDS011;4556;49.150;8.808;2022-07-01T20:59:34;1.80;;;0.90;;
9042;SDS011;4556;49.150;8.808;2022-07-01T21:02:04;3.93;;;1.20;;
9042;SDS011;4556;49.150;8.808;2022-07-01T23:09:12;2.00;;;1.63;;
9042;SDS011;4556;49.150;8.808;2022-07-01T23:11:48;7.93;;;1.50;;
9042;SDS011;4556;49.150;8.808;2022-07-01T23:15:59;3.03;;;1.50;;
